Time;durP1;ratioP1;P1;durP2;ratioP2;P2;SDS_P1;SDS_P2;PMS_P1;PMS_P2;Temp;Humidity;BMP_temperature;BMP_pressure;BME280_temperature;BME280_humidity;BME280_pressure;Samples;Min_cycle;Max_cycle;Signal;HPM_P1;HPM_P2
2022/05/28 00:00:18;;;;;;;10.80;3.60;;;;;;;8.94;93.94;102043.88;5278859;28;20143;-65
2022/05/28 00:02:49;;;;;;;11.73;3.17;;;;;;;8.88;91.49;102045.97;5278429;28;20025;-65
2022/05/28 00:05:20;;;;;;;14.55;4.82;;;;;;;8.86;91.56;102043.41;5277528;28;20095;-65
2022/05/28 00:07:52;;;;;;;15.05;4.00;;;;;;;8.87;93.01;102031.81;5277836;28;20485;-66
2022/05/28 00:10:23;;;;;;;9.57;3.40;;;;;;;8.83;93.62;102033.75;5278249;28;20058;-65
2022/05/28 00:12:57;;;;;;;11.40;3.47;;;;;;;8.80;92.74;102035.72;5276984;28;20032;-65
2022/05/28 00:15:28;;;;;;;11.48;3.70;;;;;;;8.77;91.94;102026.09;5278780;28;20036;-65
2022/05/28 00:17:59;;;;;;;12.65;4.60;;;;;;;8.67;93.19;102024.84;5277253;28;20043;-65
2022/05/28 00:20:31;;;;;;;8.98;3.83;;;;;;;8.67;91.96;102023.94;5278482;28;20060;-65
2022/05/28 00:23:02;;;;;;;15.40;3.45;;;;;;;8.80;93.50;102020.63;5277256;28;20478;-65
2022/05/28 00:25:34;;;;;;;11.68;4.18;;;;;;;8.67;92.84;102016.84;5274854;28;20186;-65
2022/05/28 00:28:05;;;;;;;12.30;3.85;;;;;;;8.71;92.42;102028.22;5278248;28;20029;-65
2022/05/28 00:30:37;;;;;;;14.88;4.38;;;;;;;8.89;94.76;102013.97;5278239;28;20371;-65
2022/05/28 00:33:08;;;;;;;12.80;3.95;;;;;;;8.79;93.02;102020.69;5277001;28;20478;-65
2022/05/28 00:35:40;;;;;;;10.60;4.07;;;;;;;8.98;94.78;102018.81;5277424;28;20093;-65
2022/05/28 00:38:11;;;;;;;13.57;3.63;;;;;;;8.90;93.08;102014.81;5277962;28;20044;-65
2022/05/28 00:40:47;;;;;;;14.18;4.03;;;;;;;8.91;92.55;102006.75;5276794;28;20020;-65
2022/05/28 00:43:20;;;;;;;13.05;4.28;;;;;;;8.93;92.07;102004.88;5278086;28;20035;-65
2022/05/28 00:45:57;;;;;;;16.33;4.55;;;;;;;8.91;92.28;102013.88;5264119;28;20029;-65
2022/05/28 00:48:34;;;;;;;13.20;4.97;;;;;;;8.91;92.08;102006.75;5273822;28;20033;-65
2022/05/28 00:51:09;;;;;;;17.10;3.95;;;;;;;8.92;92.76;102016.47;5278468;28;20020;-65
2022/05/28 00:53:41;;;;;;;15.25;4.00;;;;;;;8.89;92.43;102016.63;5275183;28;20111;-65
2022/05/28 00:56:12;;;;;;;14.50;4.13;;;;;;;8.99;95.58;102011.69;5281026;28;20459;-65
2022/05/28 00:58:43;;;;;;;13.70;4.78;;;;;;;8.90;93.12;102017.47;5281361;28;20553;-65
2022/05/28 01:01:16;;;;;;;16.02;4.60;;;;;;;8.86;93.14;102007.94;5280739;28;20024;-65
2022/05/28 01:04:22;;;;;;;16.00;4.47;;;;;;;8.91;93.18;102011.22;5281113;28;20435;-65
2022/05/28 01:07:20;;;;;;;13.65;4.00;;;;;;;8.83;93.57;102007.16;5258937;28;20124;-65
2022/05/28 01:10:06;;;;;;;15.90;5.25;;;;;;;8.88;94.78;102011.38;5274166;28;20024;-65
2022/05/28 01:12:46;;;;;;;8.52;4.20;;;;;;;8.92;95.42;102007.63;5280261;28;20515;-65
2022/05/28 01:15:30;;;;;;;18.52;4.50;;;;;;;8.83;94.95;101992.97;5281354;28;20073;-65
2022/05/28 01:18:08;;;;;;;15.55;5.07;;;;;;;8.79;93.73;101996.75;5280832;28;20033;-65
2022/05/28 01:20:52;;;;;;;14.35;4.55;;;;;;;8.79;93.26;101996.75;5279891;28;20043;-65
2022/05/28 01:23:32;;;;;;;20.58;5.45;;;;;;;8.78;92.94;101997.66;5275376;28;20047;-65
2022/05/28 01:26:14;;;;;;;14.05;4.10;;;;;;;8.77;93.34;101993.31;5276263;28;20574;-65
2022/05/28 01:28:51;;;;;;;16.50;5.00;;;;;;;8.79;92.98;101984.28;5279468;28;20047;-65
2022/05/28 01:31:25;;;;;;;14.45;4.53;;;;;;;8.77;92.65;101982.66;5281533;28;20085;-65
2022/05/28 01:34:00;;;;;;;14.05;5.15;;;;;;;8.80;93.50;101990.47;5279887;28;20032;-65
2022/05/28 01:36:34;;;;;;;15.50;5.07;;;;;;;8.72;93.62;101979.34;5277836;28;20037;-65
2022/05/28 01:39:07;;;;;;;16.48;4.72;;;;;;;8.76;93.60;101979.16;5278630;28;20568;-65
2022/05/28 01:41:39;;;;;;;13.45;4.45;;;;;;;8.69;93.45;101983.03;5280075;28;20025;-65
2022/05/28 01:44:12;;;;;;;19.65;4.82;;;;;;;8.71;93.93;101980.31;5280906;28;20025;-65
2022/05/28 01:46:47;;;;;;;13.73;4.77;;;;;;;8.68;93.87;101988.44;5278160;28;20024;-65
2022/05/28 01:49:20;;;;;;;13.32;4.28;;;;;;;8.67;93.48;101978.72;5279908;28;20067;-65
2022/05/28 01:51:59;;;;;;;17.63;4.97;;;;;;;8.69;94.55;101990.19;5280638;28;20060;-65
2022/05/28 01:54:36;;;;;;;13.30;4.53;;;;;;;8.64;94.37;101982.41;5280315;28;20079;-65
2022/05/28 01:57:08;;;;;;;13.98;4.68;;;;;;;8.68;94.22;101994.63;5273647;28;20102;-65
2022/05/28 01:59:40;;;;;;;15.75;4.45;;;;;;;8.71;95.21;101980.31;5275743;28;20033;-65
2022/05/28 02:02:13;;;;;;;12.55;4.50;;;;;;;8.73;94.78;101981.94;5279215;28;20028;-65
2022/05/28 02:04:47;;;;;;;14.32;4.60;;;;;;;8.70;95.29;101979.44;5274085;28;20427;-65
2022/05/28 02:07:19;;;;;;;17.52;4.68;;;;;;;8.71;94.70;101983.84;5280662;28;20103;-65
2022/05/28 02:10:11;;;;;;;16.23;4.65;;;;;;;8.73;94.88;101995.25;5280132;28;20562;-65
2022/05/28 02:12:56;;;;;;;14.57;4.65;;;;;;;8.77;95.35;101995.97;5275518;28;20314;-65
2022/05/28 02:15:39;;;;;;;14.25;4.72;;;;;;;8.69;95.40;101985.72;5277222;28;20112;-65
2022/05/28 02:18:30;;;;;;;17.15;4.95;;;;;;;8.67;95.65;101992.91;5279123;28;20458;-65
2022/05/28 02:21:15;;;;;;;14.95;5.00;;;;;;;8.69;96.10;101992.84;5275592;28;20025;-65
2022/05/28 02:23:59;;;;;;;16.05;5.32;;;;;;;8.58;96.33;101988.91;5273577;28;20551;-65
2022/05/28 02:26:43;;;;;;;12.98;4.72;;;;;;;8.53;96.15;101985.59;5276136;28;20036;-65
2022/05/28 02:29:15;;;;;;;13.35;4.85;;;;;;;8.51;96.29;101986.63;5278489;28;20036;-65
2022/05/28 02:31:49;;;;;;;16.38;5.45;;;;;;;8.65;98.73;101984.16;5279496;28;20020;-65
2022/05/28 02:34:20;;;;;;;12.93;4.95;;;;;;;8.64;100.00;101982.41;5278909;28;20111;-65
2022/05/28 02:36:52;;;;;;;14.85;5.30;;;;;;;8.57;99.00;101975.66;5279845;28;20096;-65
2022/05/28 02:39:24;;;;;;;16.30;4.38;;;;;;;8.43;97.85;101979.88;5278958;28;20032;-65
2022/05/28 02:41:56;;;;;;;16.02;5.03;;;;;;;8.49;99.06;101975.19;5279444;28;20029;-65
2022/05/28 02:44:28;;;;;;;12.73;4.43;;;;;;;8.47;98.71;101969.09;5271384;28;20032;-65
2022/05/28 02:47:00;;;;;;;15.50;4.57;;;;;;;8.46;98.37;101968.25;5278600;28;20027;-65
2022/05/28 02:49:31;;;;;;;11.88;4.93;;;;;;;8.40;98.41;101965.84;5279423;28;20023;-65
2022/05/28 02:52:05;;;;;;;15.98;4.68;;;;;;;8.43;98.68;101968.38;5278142;28;20109;-65
2022/05/28 02:54:36;;;;;;;11.85;4.35;;;;;;;8.36;98.65;101969.56;5278694;28;20040;-65
2022/05/28 02:57:07;;;;;;;13.57;4.95;;;;;;;8.50;100.00;101964.47;5279307;28;20042;-65
2022/05/28 02:59:38;;;;;;;10.88;4.13;;;;;;;8.54;100.00;101967.84;5278017;28;20439;-65
2022/05/28 03:02:10;;;;;;;17.15;4.82;;;;;;;8.37;100.00;101964.19;5277835;28;20021;-65
2022/05/28 03:04:41;;;;;;;11.20;4.22;;;;;;;8.36;99.90;101961.59;5278944;28;20082;-65
2022/05/28 03:07:13;;;;;;;15.13;4.80;;;;;;;8.30;99.60;101957.44;5278909;28;20055;-65
2022/05/28 03:09:44;;;;;;;15.48;4.35;;;;;;;8.33;100.00;101956.44;5278360;28;20020;-65
2022/05/28 03:12:15;;;;;;;14.27;4.65;;;;;;;8.34;100.00;101959.03;5278854;28;20108;-65
2022/05/28 03:14:46;;;;;;;16.17;4.18;;;;;;;8.38;100.00;101952.63;5268767;28;20059;-65
2022/05/28 03:17:18;;;;;;;15.35;3.80;;;;;;;8.40;100.00;101958.72;5279116;28;20039;-65
2022/05/28 03:19:49;;;;;;;10.27;3.88;;;;;;;8.38;100.00;101957.06;5272448;28;20044;-65
2022/05/28 03:22:20;;;;;;;9.32;3.42;;;;;;;8.49;100.00;101957.44;5278126;28;20395;-65
2022/05/28 03:24:52;;;;;;;10.73;4.20;;;;;;;8.41;100.00;101956.91;5278462;28;20118;-65
2022/05/28 03:27:24;;;;;;;12.98;3.65;;;;;;;8.47;100.00;101959.31;5269846;28;20362;-65
2022/05/28 03:29:55;;;;;;;18.88;4.50;;;;;;;8.48;100.00;101963.69;5278707;28;20030;-65
2022/05/28 03:32:26;;;;;;;13.77;4.15;;;;;;;8.50;100.00;101964.47;5277918;28;20032;-65
2022/05/28 03:34:58;;;;;;;12.23;4.10;;;;;;;8.48;100.00;101958.38;5267638;28;20074;-65
2022/05/28 03:37:29;;;;;;;10.57;3.67;;;;;;;8.56;100.00;101964.16;5278724;28;20032;-65
2022/05/28 03:40:01;;;;;;;12.57;4.13;;;;;;;8.47;100.00;101969.09;5278212;28;20039;-65
2022/05/28 03:42:32;;;;;;;12.18;4.43;;;;;;;8.47;100.00;101969.94;5277416;28;20462;-65
2022/05/28 03:45:04;;;;;;;15.60;5.55;;;;;;;8.54;100.00;101962.53;5278331;28;20036;-65
2022/05/28 03:47:35;;;;;;;16.77;4.93;;;;;;;8.57;100.00;101965.03;5263630;28;20479;-65
2022/05/28 03:50:07;;;;;;;10.85;3.55;;;;;;;8.48;100.00;101968.16;5271418;28;20021;-65
2022/05/28 03:52:38;;;;;;;17.52;5.15;;;;;;;8.53;100.00;101968.78;5272996;28;20123;-65
2022/05/28 03:55:09;;;;;;;11.10;4.15;;;;;;;8.44;100.00;101970.97;5277964;28;20150;-65
2022/05/28 03:57:41;;;;;;;12.00;4.18;;;;;;;8.53;100.00;101972.28;5273491;28;20040;-65
2022/05/28 04:00:13;;;;;;;10.55;3.78;;;;;;;8.53;100.00;101968.78;5274264;28;20036;-65
2022/05/28 04:02:45;;;;;;;17.42;3.95;;;;;;;8.56;100.00;101973.97;5276953;28;20526;-65
2022/05/28 04:05:17;;;;;;;14.95;4.35;;;;;;;8.51;100.00;101974.16;5278243;28;20029;-65
2022/05/28 04:07:48;;;;;;;16.15;4.28;;;;;;;8.40;100.00;101980.00;5274682;28;20040;-65
2022/05/28 04:10:20;;;;;;;15.02;4.40;;;;;;;8.39;100.00;101978.25;5278161;28;20028;-65
2022/05/28 04:12:51;;;;;;;16.10;4.55;;;;;;;8.48;100.00;101984.97;5275773;28;20090;-65
2022/05/28 04:15:24;;;;;;;16.67;4.30;;;;;;;8.42;100.00;101979.97;5278106;28;20047;-65
2022/05/28 04:17:56;;;;;;;10.85;4.00;;;;;;;8.52;100.00;101985.69;5276157;28;20093;-65
2022/05/28 04:20:27;;;;;;;16.23;4.13;;;;;;;8.50;100.00;101979.59;5277868;28;20036;-65
2022/05/28 04:22:58;;;;;;;20.90;4.78;;;;;;;8.51;100.00;101990.13;5266780;28;20082;-65
2022/05/28 04:25:29;;;;;;;11.80;4.43;;;;;;;8.58;100.00;101988.03;5276883;28;20061;-65
2022/05/28 04:28:01;;;;;;;9.10;3.50;;;;;;;8.60;100.00;101986.16;5279521;28;20033;-65
2022/05/28 04:30:32;;;;;;;12.77;4.20;;;;;;;8.63;100.00;101994.00;5281162;28;20485;-65
2022/05/28 04:33:03;;;;;;;17.08;4.35;;;;;;;8.69;100.00;101988.38;5280709;28;20027;-65
2022/05/28 04:35:35;;;;;;;14.80;4.05;;;;;;;8.75;100.00;101996.03;5280111;28;20043;-65
2022/05/28 04:38:06;;;;;;;15.07;4.00;;;;;;;8.83;100.00;101992.97;5273902;28;20013;-65
2022/05/28 04:40:37;;;;;;;17.35;4.47;;;;;;;8.88;100.00;101992.75;5281796;28;20075;-65
2022/05/28 04:43:09;;;;;;;14.05;3.72;;;;;;;8.93;100.00;101998.69;5278544;28;20024;-65
2022/05/28 04:45:40;;;;;;;15.75;4.13;;;;;;;8.96;100.00;101986.09;5280058;28;20026;-65
2022/05/28 04:48:12;;;;;;;16.05;4.35;;;;;;;9.02;100.00;101995.56;5279351;28;20025;-65
2022/05/28 04:50:43;;;;;;;19.42;4.28;;;;;;;9.05;100.00;101992.75;5281790;28;20097;-65
2022/05/28 04:53:14;;;;;;;11.88;3.63;;;;;;;9.06;100.00;101997.13;5279971;28;20542;-65
2022/05/28 04:55:45;;;;;;;15.80;4.38;;;;;;;9.11;100.00;101997.75;5280528;28;20033;-65
2022/05/28 04:58:17;;;;;;;13.75;3.88;;;;;;;9.12;100.00;102010.13;5274188;28;20032;-65
2022/05/28 05:00:48;;;;;;;14.88;4.22;;;;;;;9.15;100.00;102002.00;5279916;28;20060;-65
2022/05/28 05:03:20;;;;;;;14.95;4.40;;;;;;;9.19;100.00;102010.69;5276818;28;20601;-65
2022/05/28 05:05:51;;;;;;;15.23;3.80;;;;;;;9.22;100.00;102005.19;5280910;28;20029;-65
2022/05/28 05:08:22;;;;;;;11.15;3.42;;;;;;;9.28;100.00;102004.00;5281306;28;20043;-65
2022/05/28 05:10:54;;;;;;;15.57;4.57;;;;;;;9.33;100.00;102005.47;5280557;28;20100;-65
2022/05/28 05:13:25;;;;;;;12.60;4.00;;;;;;;9.33;100.00;102008.13;5280843;28;20044;-65
2022/05/28 05:15:57;;;;;;;16.30;4.00;;;;;;;9.41;100.00;102015.72;5280251;28;20024;-65
2022/05/28 05:18:28;;;;;;;15.90;4.07;;;;;;;9.49;100.00;102012.66;5281107;28;20390;-65
2022/05/28 05:20:59;;;;;;;17.35;4.93;;;;;;;9.53;100.00;102015.09;5280527;28;20471;-65
2022/05/28 05:23:30;;;;;;;15.55;3.78;;;;;;;9.62;100.00;102014.56;5280063;28;20165;-65
2022/05/28 05:26:15;;;;;;;13.65;3.40;;;;;;;9.58;100.00;102021.00;5281656;28;20387;-65
2022/05/28 05:28:47;;;;;;;;;;;;;;;9.62;100.00;102013.72;5280159;28;20410;-65
2022/05/28 05:31:18;;;;;;;12.93;3.88;;;;;;;9.72;100.00;102019.41;5280964;28;19923;-65
2022/05/28 05:33:49;;;;;;;12.90;3.20;;;;;;;9.78;100.00;102019.97;5278840;28;20036;-65
2022/05/28 05:36:21;;;;;;;7.53;2.90;;;;;;;9.79;100.00;102024.34;5281042;28;20036;-65
2022/05/28 05:38:52;;;;;;;14.82;2.45;;;;;;;9.88;100.00;102027.47;5277326;28;20106;-65
2022/05/28 05:41:23;;;;;;;10.68;2.25;;;;;;;9.94;100.00;102027.97;5275593;28;20040;-65
2022/05/28 05:43:55;;;;;;;12.38;2.58;;;;;;;9.98;100.00;102029.53;5280729;28;20443;-65
2022/05/28 05:46:26;;;;;;;9.07;2.33;;;;;;;10.05;100.00;102021.19;5276083;28;20576;-65
2022/05/28 05:48:58;;;;;;;12.50;1.95;;;;;;;10.19;100.00;102026.63;5279284;28;20486;-65
2022/05/28 05:51:29;;;;;;;8.73;1.60;;;;;;;10.29;100.00;102029.63;5272695;28;20455;-65
2022/05/28 05:54:00;;;;;;;9.25;1.70;;;;;;;10.37;97.37;102032.75;5278699;28;20115;-65
2022/05/28 05:56:32;;;;;;;8.90;1.77;;;;;;;10.44;97.00;102035.94;5279893;28;20127;-65
2022/05/28 05:59:03;;;;;;;10.20;1.70;;;;;;;10.55;96.58;102039.72;5280575;28;20021;-65
2022/05/28 06:01:34;;;;;;;7.68;1.45;;;;;;;10.68;93.95;102036.31;5279370;28;20083;-65
2022/05/28 06:04:06;;;;;;;8.65;1.35;;;;;;;10.74;94.07;102031.50;5278817;28;20024;-65
2022/05/28 06:06:37;;;;;;;10.48;1.67;;;;;;;10.88;92.00;102037.84;5279641;28;20402;-65
2022/05/28 06:09:09;;;;;;;7.88;1.10;;;;;;;10.97;91.07;102038.16;5276468;28;20389;-65
2022/05/28 06:11:40;;;;;;;9.23;1.55;;;;;;;11.15;90.17;102038.88;5280181;28;20386;-65
2022/05/28 06:14:12;;;;;;;7.50;1.65;;;;;;;11.37;87.78;102054.50;5280611;28;20466;-65
2022/05/28 06:16:43;;;;;;;9.35;1.35;;;;;;;11.52;88.07;102033.97;5279496;28;20024;-65
2022/05/28 06:19:14;;;;;;;4.30;1.00;;;;;;;11.66;86.05;102056.31;5277576;28;20035;-65
2022/05/28 06:21:46;;;;;;;5.93;1.48;;;;;;;11.68;82.77;102059.78;5279628;28;20501;-65
2022/05/28 06:24:17;;;;;;;7.35;1.20;;;;;;;11.66;82.21;102042.94;5273045;28;20052;-65
2022/05/28 06:26:49;;;;;;;7.28;1.42;;;;;;;11.67;82.58;102052.69;5279694;28;20028;-65
2022/05/28 06:29:20;;;;;;;8.88;1.52;;;;;;;11.66;81.06;102056.31;5279974;28;20067;-65
2022/05/28 06:31:51;;;;;;;6.18;1.23;;;;;;;11.69;81.73;102056.13;5276330;28;20031;-65
2022/05/28 06:34:22;;;;;;;10.65;1.40;;;;;;;11.71;80.47;102055.06;5276892;28;20037;-65
2022/05/28 06:36:54;;;;;;;5.35;1.02;;;;;;;11.78;76.12;102060.91;5279469;28;20093;-65
2022/05/28 06:39:25;;;;;;;6.15;1.17;;;;;;;11.89;77.71;102055.78;5279234;28;20481;-65
2022/05/28 06:41:56;;;;;;;5.68;1.10;;;;;;;12.07;77.96;102058.25;5279088;28;20033;-65
2022/05/28 06:44:27;;;;;;;7.22;1.35;;;;;;;12.27;76.44;102056.97;5272282;28;20514;-66
2022/05/28 06:46:59;;;;;;;5.38;1.00;;;;;;;12.37;74.88;102068.81;5269520;28;20498;-65
2022/05/28 06:49:31;;;;;;;6.03;1.20;;;;;;;12.50;74.81;102055.47;5273985;28;20387;-65
2022/05/28 06:52:03;;;;;;;10.23;1.50;;;;;;;12.55;74.65;102066.75;5277282;28;20016;-65
2022/05/28 06:54:34;;;;;;;10.50;1.45;;;;;;;12.66;73.65;102061.56;5277063;28;20032;-65
2022/05/28 06:57:05;;;;;;;4.95;1.10;;;;;;;12.74;74.31;102064.59;5277759;28;20390;-66
2022/05/28 06:59:37;;;;;;;6.90;1.05;;;;;;;12.80;72.86;102063.31;5276063;28;20244;-66
2022/05/28 07:02:08;;;;;;;8.80;1.73;;;;;;;12.88;71.94;102068.16;5278307;28;20032;-65
2022/05/28 07:04:39;;;;;;;8.25;1.27;;;;;;;12.89;71.45;102076.09;5278947;28;20052;-66
2022/05/28 07:07:11;;;;;;;6.20;1.48;;;;;;;12.82;71.44;102079.28;5276454;28;20040;-65
2022/05/28 07:09:42;;;;;;;8.65;1.65;;;;;;;12.67;69.95;102076.66;5270070;28;20025;-65
2022/05/28 07:12:14;;;;;;;6.72;1.42;;;;;;;12.59;69.70;102068.28;5277763;28;20040;-65
2022/05/28 07:14:45;;;;;;;7.20;1.20;;;;;;;12.62;68.99;102073.44;5279085;28;20035;-66
2022/05/28 07:17:17;;;;;;;9.50;1.88;;;;;;;12.82;67.94;102079.28;5277089;28;20407;-66
2022/05/28 07:19:49;;;;;;;7.15;1.10;;;;;;;12.99;67.92;102079.03;5277765;28;20077;-66
2022/05/28 07:22:20;;;;;;;7.20;1.45;;;;;;;13.04;66.30;102076.03;5279700;28;20534;-66
2022/05/28 07:24:52;;;;;;;7.63;1.13;;;;;;;13.10;66.78;102078.31;5267698;28;20127;-65
2022/05/28 07:27:23;;;;;;;7.13;1.42;;;;;;;13.38;66.61;102076.47;5271122;28;20033;-66
2022/05/28 07:29:55;;;;;;;6.38;1.48;;;;;;;13.42;67.22;102078.81;5269236;28;20052;-65
2022/05/28 07:32:29;;;;;;;5.93;1.15;;;;;;;13.57;65.23;102070.69;5277965;28;20028;-66
2022/05/28 07:35:00;;;;;;;5.65;1.13;;;;;;;13.64;64.66;102067.47;5278677;28;20448;-65
2022/05/28 07:37:32;;;;;;;6.60;1.52;;;;;;;13.72;64.10;102072.28;5278041;28;20020;-65
2022/05/28 07:40:04;;;;;;;6.55;1.27;;;;;;;13.89;64.75;102071.97;5267967;28;20021;-66
2022/05/28 07:42:35;;;;;;;5.75;1.25;;;;;;;13.77;62.51;102067.47;5275468;28;20322;-66
2022/05/28 07:45:07;;;;;;;7.70;1.20;;;;;;;13.82;63.52;102075.19;5278559;28;20474;-66
2022/05/28 07:47:38;;;;;;;7.80;1.48;;;;;;;13.79;62.28;102070.03;5276926;28;20039;-65
2022/05/28 07:50:09;;;;;;;7.85;1.30;;;;;;;13.83;61.65;102071.56;5278580;28;20020;-65
2022/05/28 07:52:40;;;;;;;4.88;0.98;;;;;;;14.00;60.71;102078.38;5274598;28;20035;-66
2022/05/28 07:55:13;;;;;;;3.85;0.90;;;;;;;13.90;57.36;102076.38;5271223;28;20114;-66
2022/05/28 07:57:44;;;;;;;8.80;1.10;;;;;;;13.90;58.88;102067.44;5278302;28;20032;-66
2022/05/28 08:00:16;;;;;;;5.95;1.10;;;;;;;14.11;60.23;102068.63;5272817;28;20434;-65
2022/05/28 08:02:47;;;;;;;7.20;0.88;;;;;;;14.14;58.72;102072.03;5278402;28;20032;-66
2022/05/28 08:05:19;;;;;;;5.47;1.20;;;;;;;14.24;59.05;102087.34;5283652;28;20027;-65
2022/05/28 08:07:50;;;;;;;8.88;1.45;;;;;;;14.40;57.71;102068.31;5280504;28;20039;-66
2022/05/28 08:10:21;;;;;;;4.72;0.80;;;;;;;14.39;57.13;102074.66;5282584;28;20063;-66
2022/05/28 08:12:53;;;;;;;4.32;1.10;;;;;;;14.61;57.98;102076.66;5281632;28;20024;-66
2022/05/28 08:15:24;;;;;;;7.85;1.42;;;;;;;14.65;59.15;102069.22;5283093;28;20031;-66
2022/05/28 08:17:56;;;;;;;6.05;1.05;;;;;;;14.54;58.55;102069.13;5273162;28;20562;-66
2022/05/28 08:23:31;;;;;;;10.73;1.15;;;;;;;14.29;59.82;102069.09;5247618;28;20772;-66
2022/05/28 08:26:03;;;;;;;7.93;1.40;;;;;;;14.19;58.06;102069.88;5281926;28;20056;-66
2022/05/28 08:28:36;;;;;;;4.28;0.93;;;;;;;14.24;58.74;102067.72;5274024;28;20024;-66
2022/05/28 08:31:08;;;;;;;6.13;0.93;;;;;;;14.36;58.21;102072.19;5282173;28;20020;-66
2022/05/28 08:33:39;;;;;;;7.70;1.17;;;;;;;14.53;60.90;102070.94;5279304;28;20032;-66
2022/05/28 08:36:11;;;;;;;7.70;1.40;;;;;;;14.58;57.56;102067.97;5278827;28;20036;-66
2022/05/28 08:38:43;;;;;;;6.97;1.15;;;;;;;14.61;58.42;102068.59;5278993;28;20028;-66
2022/05/28 08:41:19;;;;;;;5.72;1.05;;;;;;;14.70;56.68;102065.22;5273318;28;20032;-66
2022/05/28 08:44:12;;;;;;;4.85;1.20;;;;;;;14.70;56.32;102064.38;5272246;28;20375;-66
2022/05/28 08:46:50;;;;;;;4.35;1.30;;;;;;;14.78;57.10;102056.56;5282790;28;20472;-66
2022/05/28 08:49:27;;;;;;;6.78;1.27;;;;;;;14.74;55.81;102059.63;5282192;28;20035;-66
2022/05/28 08:52:05;;;;;;;6.22;1.25;;;;;;;14.68;54.66;102058.25;5281518;28;20486;-66
2022/05/28 08:54:58;;;;;;;7.00;1.20;;;;;;;14.82;56.61;102065.25;5280469;28;20020;-66
2022/05/28 08:58:08;;;;;;;7.55;1.75;;;;;;;14.89;55.59;102058.47;5279080;28;20433;-66
2022/05/28 09:01:11;;;;;;;4.38;0.98;;;;;;;15.15;54.73;102056.50;5282539;28;20032;-66
2022/05/28 09:03:50;;;;;;;6.50;1.20;;;;;;;15.45;55.99;102058.63;5276158;28;20552;-66
2022/05/28 09:06:30;;;;;;;9.55;1.58;;;;;;;15.61;53.81;102065.50;5282015;28;20021;-66
2022/05/28 09:09:02;;;;;;;5.72;1.20;;;;;;;15.77;51.88;102062.50;5282886;28;20033;-66
2022/05/28 09:11:35;;;;;;;7.05;0.95;;;;;;;15.63;51.96;102060.88;5281548;28;20029;-67
2022/05/28 09:14:29;;;;;;;6.97;1.20;;;;;;;15.57;55.22;102069.41;5282076;28;20028;-66
2022/05/28 09:17:06;;;;;;;6.30;1.10;;;;;;;15.38;56.01;102062.78;5270777;28;20131;-66
2022/05/28 09:19:41;;;;;;;5.82;1.33;;;;;;;15.04;54.96;102062.69;5281520;28;20474;-66
2022/05/28 09:22:13;;;;;;;6.93;1.23;;;;;;;15.07;56.38;102059.78;5282782;28;20023;-66
2022/05/28 09:24:44;;;;;;;7.05;1.30;;;;;;;15.12;57.53;102069.31;5275524;28;20053;-66
2022/05/28 09:28:06;;;;;;;7.40;1.30;;;;;;;15.13;57.13;102052.19;5281275;28;20078;-66
2022/05/28 09:31:12;;;;;;;8.25;1.08;;;;;;;15.29;56.21;102058.13;5255500;28;20036;-66
2022/05/28 09:34:02;;;;;;;7.20;1.00;;;;;;;15.55;54.02;102053.41;5278638;28;20028;-66
2022/05/28 09:36:45;;;;;;;5.35;1.08;;;;;;;15.61;51.42;102055.59;5281465;28;20154;-66
2022/05/28 09:39:38;;;;;;;6.32;1.17;;;;;;;15.72;51.23;102060.13;5271238;28;20510;-66
2022/05/28 09:42:42;;;;;;;4.25;0.93;;;;;;;15.63;51.97;102045.59;5276683;28;20057;-67
2022/05/28 09:45:48;;;;;;;6.18;1.10;;;;;;;15.78;53.34;102051.63;5281524;28;20028;-67
2022/05/28 09:48:22;;;;;;;3.95;0.98;;;;;;;15.61;51.04;102061.00;5268312;28;20060;-67
2022/05/28 09:50:55;;;;;;;5.65;1.20;;;;;;;15.40;49.80;102058.16;5277813;28;20032;-66
2022/05/28 09:56:36;;;;;;;8.32;1.65;;;;;;;15.72;51.25;102053.91;5281483;28;20478;-66
2022/05/28 09:59:32;;;;;;;8.88;1.67;;;;;;;15.94;52.56;102055.78;5275614;28;20454;-67
2022/05/28 10:02:21;;;;;;;7.82;1.25;;;;;;;15.88;52.89;102044.53;5273164;28;20036;-67
2022/05/28 10:04:55;;;;;;;5.53;1.30;;;;;;;15.77;51.58;102040.97;5276398;28;20024;-66
2022/05/28 10:07:39;;;;;;;8.90;2.17;;;;;;;15.81;52.99;102048.66;5281088;28;20159;-66
2022/05/28 10:10:27;;;;;;;5.75;1.50;;;;;;;15.70;53.76;102051.31;5277995;28;20036;-66
2022/05/28 10:13:13;;;;;;;7.05;1.83;;;;;;;15.69;52.83;102049.63;5280864;28;20028;-66
2022/05/28 10:15:49;;;;;;;8.20;1.70;;;;;;;15.80;52.37;102046.09;5275331;28;20040;-66
2022/05/28 10:18:25;;;;;;;7.53;1.52;;;;;;;15.43;52.27;102038.22;5278223;28;20029;-66
2022/05/28 10:21:33;;;;;;;7.22;1.15;;;;;;;15.33;56.16;102046.16;5280867;28;20083;-66
2022/05/28 10:24:14;;;;;;;7.82;1.50;;;;;;;15.27;52.90;102043.94;5267386;28;20041;-66
2022/05/28 10:26:48;;;;;;;7.53;1.27;;;;;;;15.25;50.76;102035.97;5267973;28;20055;-66
2022/05/28 10:29:27;;;;;;;5.47;1.25;;;;;;;15.45;51.08;102039.78;5279442;28;20509;-66
2022/05/28 10:32:00;;;;;;;9.48;1.30;;;;;;;15.36;50.89;102040.53;5279538;28;20020;-66
2022/05/28 10:34:38;;;;;;;7.20;1.30;;;;;;;15.62;48.06;102025.03;5269825;28;20427;-66
2022/05/28 10:37:19;;;;;;;6.65;1.20;;;;;;;15.78;47.67;102035.47;5275631;28;20037;-66
2022/05/28 10:40:02;;;;;;;5.40;0.80;;;;;;;15.60;46.77;102040.44;5272829;28;20032;-66
2022/05/28 10:42:34;;;;;;;6.50;1.40;;;;;;;15.55;47.68;102036.38;5275950;28;20024;-66
2022/05/28 10:45:07;;;;;;;8.38;1.45;;;;;;;15.69;48.65;102025.41;5265849;28;20036;-66
2022/05/28 10:47:53;;;;;;;4.88;1.02;;;;;;;15.83;48.73;102024.34;5273551;28;20033;-67
2022/05/28 10:50:43;;;;;;;6.43;1.17;;;;;;;16.04;46.31;102038.75;5278218;28;20027;-66
2022/05/28 10:53:34;;;;;;;5.78;1.00;;;;;;;15.96;45.10;102030.44;5274975;28;20502;-67
2022/05/28 10:56:26;;;;;;;3.95;0.80;;;;;;;15.95;44.80;102034.09;5274650;28;20024;-67
2022/05/28 10:59:33;;;;;;;5.90;1.13;;;;;;;15.99;45.37;102022.13;5278433;28;20590;-68
2022/05/28 11:02:12;;;;;;;6.97;1.10;;;;;;;15.98;46.55;102028.47;5264884;28;20025;-67
2022/05/28 11:04:57;;;;;;;5.30;0.80;;;;;;;15.97;46.01;102025.91;5274815;28;20104;-68
2022/05/28 11:07:40;;;;;;;5.15;1.05;;;;;;;15.95;44.77;102026.03;5271318;28;20556;-67
2022/05/28 11:10:32;;;;;;;5.32;1.00;;;;;;;16.08;46.20;102026.75;5267196;28;20032;-67
2022/05/28 11:13:27;;;;;;;9.07;1.10;;;;;;;16.37;47.57;102018.13;5276113;28;20032;-67
2022/05/28 11:16:26;;;;;;;6.40;0.93;;;;;;;16.42;46.88;102037.47;5278496;28;20447;-67
2022/05/28 11:19:06;;;;;;;6.07;1.50;;;;;;;15.97;45.36;102026.75;5277277;28;20055;-67
2022/05/28 11:21:54;;;;;;;4.68;1.38;;;;;;;15.87;45.50;102020.41;5277586;28;20115;-66
2022/05/28 11:24:53;;;;;;;5.25;0.80;;;;;;;15.85;43.91;102017.00;5270419;28;20064;-67
2022/05/28 11:27:43;;;;;;;3.15;0.75;;;;;;;15.93;44.35;102019.06;5272550;28;20491;-67
2022/05/28 11:30:22;;;;;;;5.03;0.98;;;;;;;16.02;42.15;102012.94;5273785;28;20052;-66
2022/05/28 11:33:12;;;;;;;7.53;1.08;;;;;;;16.33;44.62;102010.44;5276881;28;20042;-67
2022/05/28 11:36:06;;;;;;;4.38;0.77;;;;;;;16.51;42.87;102017.00;5264641;28;20103;-68
2022/05/28 11:38:55;;;;;;;4.47;1.08;;;;;;;16.52;43.40;102015.16;5272946;28;20474;-67
2022/05/28 11:41:47;;;;;;;5.88;1.10;;;;;;;16.58;44.17;102011.94;5266264;28;20028;-67
2022/05/28 11:44:30;;;;;;;4.30;1.05;;;;;;;16.51;42.63;101992.75;5276979;28;20043;-67
2022/05/28 11:47:13;;;;;;;3.55;0.80;;;;;;;16.60;41.08;102002.75;5267500;28;20021;-69
2022/05/28 11:53:06;;;;;;;6.03;0.93;;;;;;;16.19;41.89;102017.81;5271292;28;20108;-67
2022/05/28 11:55:41;;;;;;;4.78;0.98;;;;;;;16.15;41.32;102005.59;5270371;28;20028;-67
2022/05/28 11:58:23;;;;;;;3.80;1.35;;;;;;;16.25;42.14;102003.84;5270683;28;20385;-67
2022/05/28 12:00:59;;;;;;;5.18;0.98;;;;;;;16.07;39.98;101992.75;5275743;28;20032;-67
2022/05/28 12:03:31;;;;;;;5.13;1.30;;;;;;;16.32;41.60;101981.78;5277068;28;20430;-67
2022/05/28 12:06:26;;;;;;;5.22;0.90;;;;;;;16.28;43.80;101991.97;5276017;28;20445;-67
2022/05/28 12:09:06;;;;;;;7.07;1.17;;;;;;;16.37;42.59;101990.34;5267104;28;20484;-67
2022/05/28 12:11:46;;;;;;;4.70;0.93;;;;;;;16.47;41.07;101975.13;5274206;28;20025;-68
2022/05/28 12:14:24;;;;;;;5.45;0.95;;;;;;;16.79;41.12;101983.19;5269285;28;20036;-67